sensor_id;sensor_type;location;lat;lon;timestamp;pressure;altitude;pressure_sealevel;temperature;humidity
73600;BME280;61877;48.246;9.220;2024-02-23T00:00:46;92236.03;;;5.02;100.00
73600;BME280;61877;48.246;9.220;2024-02-23T00:03:14;92238.75;;;5.06;100.00
73600;BME280;61877;48.246;9.220;2024-02-23T00:05:41;92235.44;;;5.09;100.00
73600;BME280;61877;48.246;9.220;2024-02-23T00:08:09;92224.72;;;5.05;100.00
73600;BME280;61877;48.246;9.220;2024-02-23T00:10:36;92225.56;;;5.09;100.00
73600;BME280;61877;48.246;9.220;2024-02-23T00:13:03;92237.41;;;5.12;100.00
73600;BME280;61877;48.246;9.220;2024-02-23T00:15:29;92250.59;;;5.08;100.00
73600;BME280;61877;48.246;9.220;2024-02-23T00:17:59;92256.28;;;5.07;100.00
73600;BME280;61877;48.246;9.220;2024-02-23T00:20:27;92256.19;;;5.03;100.00
73600;BME280;61877;48.246;9.220;2024-02-23T00:22:53;92261.50;;;5.03;100.00
73600;BME280;61877;48.246;9.220;2024-02-23T00:25:20;92285.25;;;4.96;100.00
73600;BME280;61877;48.246;9.220;2024-02-23T00:27:46;92298.94;;;4.64;100.00
73600;BME280;61877;48.246;9.220;2024-02-23T00:30:14;92314.13;;;3.77;100.00
73600;BME280;61877;48.246;9.220;2024-02-23T00:32:40;92315.72;;;3.26;100.00
73600;BME280;61877;48.246;9.220;2024-02-23T00:35:07;92322.75;;;2.95;100.00
73600;BME280;61877;48.246;9.220;2024-02-23T00:37:35;92329.69;;;2.75;100.00
73600;BME280;61877;48.246;9.220;2024-02-23T00:40:02;92343.16;;;2.58;100.00
73600;BME280;61877;48.246;9.220;2024-02-23T00:42:28;92339.38;;;2.59;100.00
73600;BME280;61877;48.246;9.220;2024-02-23T00:44:55;92342.91;;;2.51;100.00
73600;BME280;61877;48.246;9.220;2024-02-23T00:47:22;92344.00;;;2.38;100.00
73600;BME280;61877;48.246;9.220;2024-02-23T00:49:49;92346.75;;;2.29;100.00
73600;BME280;61877;48.246;9.220;2024-02-23T00:52:15;92358.19;;;2.21;100.00
73600;BME280;61877;48.246;9.220;2024-02-23T00:54:43;92354.09;;;2.24;100.00
73600;BME280;61877;48.246;9.220;2024-02-23T00:57:10;92348.59;;;2.17;100.00
73600;BME280;61877;48.246;9.220;2024-02-23T00:59:36;92344.63;;;2.23;100.00
73600;BME280;61877;48.246;9.220;2024-02-23T01:02:03;92350.81;;;2.27;100.00
73600;BME280;61877;48.246;9.220;2024-02-23T01:04:30;92348.19;;;2.27;100.00
73600;BME280;61877;48.246;9.220;2024-02-23T01:06:57;92335.28;;;2.25;100.00
73600;BME280;61877;48.246;9.220;2024-02-23T01:09:24;92333.19;;;2.31;100.00
73600;BME280;61877;48.246;9.220;2024-02-23T01:11:52;92336.41;;;2.36;100.00
73600;BME280;61877;48.246;9.220;2024-02-23T01:14:21;92334.31;;;2.42;100.00
73600;BME280;61877;48.246;9.220;2024-02-23T01:16:48;92342.03;;;2.47;100.00
73600;BME280;61877;48.246;9.220;2024-02-23T01:19:14;92340.47;;;2.46;100.00
73600;BME280;61877;48.246;9.220;2024-02-23T01:21:41;92328.13;;;2.38;100.00
73600;BME280;61877;48.246;9.220;2024-02-23T01:24:08;92329.44;;;2.44;100.00
73600;BME280;61877;48.246;9.220;2024-02-23T01:26:34;92334.97;;;2.51;100.00
73600;BME280;61877;48.246;9.220;2024-02-23T01:29:02;92339.59;;;2.54;100.00
73600;BME280;61877;48.246;9.220;2024-02-23T01:31:29;92345.78;;;2.58;100.00
73600;BME280;61877;48.246;9.220;2024-02-23T01:33:55;92352.63;;;2.59;100.00
73600;BME280;61877;48.246;9.220;2024-02-23T01:36:22;92365.44;;;2.57;100.00
73600;BME280;61877;48.246;9.220;2024-02-23T01:38:48;92365.44;;;2.57;100.00
73600;BME280;61877;48.246;9.220;2024-02-23T01:41:15;92372.38;;;2.61;100.00
73600;BME280;61877;48.246;9.220;2024-02-23T01:43:42;92374.69;;;2.63;100.00
73600;BME280;61877;48.246;9.220;2024-02-23T01:46:09;92371.81;;;2.68;100.00
73600;BME280;61877;48.246;9.220;2024-02-23T01:48:36;92362.66;;;2.65;100.00
73600;BME280;61877;48.246;9.220;2024-02-23T01:51:03;92352.19;;;2.69;100.00
73600;BME280;61877;48.246;9.220;2024-02-23T01:53:30;92340.50;;;2.70;100.00
73600;BME280;61877;48.246;9.220;2024-02-23T01:55:57;92351.84;;;2.71;100.00
73600;BME280;61877;48.246;9.220;2024-02-23T01:58:25;92349.22;;;2.71;100.00
73600;BME280;61877;48.246;9.220;2024-02-23T02:00:51;92354.63;;;2.74;100.00
73600;BME280;61877;48.246;9.220;2024-02-23T02:03:19;92358.25;;;2.70;100.00
73600;BME280;61877;48.246;9.220;2024-02-23T02:05:46;92365.31;;;2.78;100.00
73600;BME280;61877;48.246;9.220;2024-02-23T02:08:13;92356.81;;;2.72;100.00
73600;BME280;61877;48.246;9.220;2024-02-23T02:10:39;92341.94;;;2.67;100.00
73600;BME280;61877;48.246;9.220;2024-02-23T02:13:06;92336.06;;;2.62;100.00
73600;BME280;61877;48.246;9.220;2024-02-23T02:15:32;92341.38;;;2.62;100.00
73600;BME280;61877;48.246;9.220;2024-02-23T02:17:59;92326.38;;;2.78;100.00
73600;BME280;61877;48.246;9.220;2024-02-23T02:20:27;92331.34;;;2.80;100.00
73600;BME280;61877;48.246;9.220;2024-02-23T02:22:54;92329.47;;;2.80;100.00
73600;BME280;61877;48.246;9.220;2024-02-23T02:25:24;92329.59;;;2.72;100.00
73600;BME280;61877;48.246;9.220;2024-02-23T02:27:50;92325.19;;;2.63;100.00
73600;BME280;61877;48.246;9.220;2024-02-23T02:30:17;92320.19;;;2.62;100.00
73600;BME280;61877;48.246;9.220;2024-02-23T02:32:44;92334.31;;;2.54;100.00
73600;BME280;61877;48.246;9.220;2024-02-23T02:35:11;92328.03;;;2.46;100.00
73600;BME280;61877;48.246;9.220;2024-02-23T02:37:39;92326.69;;;2.40;100.00
73600;BME280;61877;48.246;9.220;2024-02-23T02:40:07;92332.31;;;2.39;100.00
73600;BME280;61877;48.246;9.220;2024-02-23T02:42:33;92324.69;;;2.37;100.00
73600;BME280;61877;48.246;9.220;2024-02-23T02:45:00;92343.66;;;2.39;100.00
73600;BME280;61877;48.246;9.220;2024-02-23T02:47:27;92342.88;;;2.39;100.00
73600;BME280;61877;48.246;9.220;2024-02-23T02:49:54;92348.97;;;2.39;100.00
73600;BME280;61877;48.246;9.220;2024-02-23T02:52:21;92345.13;;;2.37;100.00
73600;BME280;61877;48.246;9.220;2024-02-23T02:54:49;92338.81;;;2.41;100.00
73600;BME280;61877;48.246;9.220;2024-02-23T02:57:15;92335.28;;;2.37;100.00
73600;BME280;61877;48.246;9.220;2024-02-23T02:59:42;92342.47;;;2.37;100.00
73600;BME280;61877;48.246;9.220;2024-02-23T03:02:08;92326.59;;;2.37;100.00
73600;BME280;61877;48.246;9.220;2024-02-23T03:04:35;92324.69;;;2.37;100.00
73600;BME280;61877;48.246;9.220;2024-02-23T03:07:02;92338.38;;;2.39;100.00
73600;BME280;61877;48.246;9.220;2024-02-23T03:09:28;92339.81;;;2.37;100.00
73600;BME280;61877;48.246;9.220;2024-02-23T03:11:56;92330.00;;;2.37;100.00
73600;BME280;61877;48.246;9.220;2024-02-23T03:14:23;92308.16;;;2.40;100.00
73600;BME280;61877;48.246;9.220;2024-02-23T03:16:50;92300.22;;;2.40;100.00
73600;BME280;61877;48.246;9.220;2024-02-23T03:19:16;92302.13;;;2.40;100.00
73600;BME280;61877;48.246;9.220;2024-02-23T03:21:43;92320.19;;;2.38;100.00
73600;BME280;61877;48.246;9.220;2024-02-23T03:24:09;92331.75;;;2.33;100.00
73600;BME280;61877;48.246;9.220;2024-02-23T03:26:36;92326.81;;;2.32;100.00
73600;BME280;61877;48.246;9.220;2024-02-23T03:29:05;92319.09;;;2.27;100.00
73600;BME280;61877;48.246;9.220;2024-02-23T03:31:31;92335.16;;;2.22;100.00
73600;BME280;61877;48.246;9.220;2024-02-23T03:33:58;92330.75;;;2.26;100.00
73600;BME280;61877;48.246;9.220;2024-02-23T03:36:24;92324.13;;;2.20;100.00
73600;BME280;61877;48.246;9.220;2024-02-23T03:38:51;92323.34;;;2.19;100.00
73600;BME280;61877;48.246;9.220;2024-02-23T03:41:18;92318.72;;;2.16;100.00
73600;BME280;61877;48.246;9.220;2024-02-23T03:43:44;92325.75;;;2.12;100.00
73600;BME280;61877;48.246;9.220;2024-02-23T03:46:12;92309.47;;;2.10;100.00
73600;BME280;61877;48.246;9.220;2024-02-23T03:48:40;92311.00;;;2.11;100.00
73600;BME280;61877;48.246;9.220;2024-02-23T03:51:08;92325.91;;;2.28;100.00
73600;BME280;61877;48.246;9.220;2024-02-23T03:53:35;92331.84;;;2.25;100.00
73600;BME280;61877;48.246;9.220;2024-02-23T03:56:02;92335.16;;;2.22;100.00
73600;BME280;61877;48.246;9.220;2024-02-23T03:58:29;92319.97;;;2.19;100.00
73600;BME280;61877;48.246;9.220;2024-02-23T04:00:55;92318.94;;;2.11;100.00
73600;BME280;61877;48.246;9.220;2024-02-23T04:03:23;92313.97;;;2.10;100.00
73600;BME280;61877;48.246;9.220;2024-02-23T04:05:50;92330.16;;;2.08;100.00
73600;BME280;61877;48.246;9.220;2024-02-23T04:08:16;92319.25;;;2.10;100.00
73600;BME280;61877;48.246;9.220;2024-02-23T04:10:43;92298.09;;;2.10;100.00
73600;BME280;61877;48.246;9.220;2024-02-23T04:13:09;92300.28;;;2.08;100.00
73600;BME280;61877;48.246;9.220;2024-02-23T04:15:36;92301.06;;;2.08;100.00
73600;BME280;61877;48.246;9.220;2024-02-23T04:18:03;92292.16;;;2.13;100.00
73600;BME280;61877;48.246;9.220;2024-02-23T04:20:31;92292.69;;;2.06;100.00
73600;BME280;61877;48.246;9.220;2024-02-23T04:22:58;92291.50;;;2.04;100.00
73600;BME280;61877;48.246;9.220;2024-02-23T04:25:25;92296.44;;;2.05;100.00
73600;BME280;61877;48.246;9.220;2024-02-23T04:27:51;92303.59;;;2.05;100.00
73600;BME280;61877;48.246;9.220;2024-02-23T04:30:18;92305.59;;;2.08;100.00
73600;BME280;61877;48.246;9.220;2024-02-23T04:32:44;92305.25;;;2.09;100.00
73600;BME280;61877;48.246;9.220;2024-02-23T04:35:11;92286.28;;;2.07;100.00
73600;BME280;61877;48.246;9.220;2024-02-23T04:37:39;92306.16;;;2.13;100.00
73600;BME280;61877;48.246;9.220;2024-02-23T04:40:07;92313.88;;;2.18;100.00
73600;BME280;61877;48.246;9.220;2024-02-23T04:42:33;92311.13;;;2.15;100.00
73600;BME280;61877;48.246;9.220;2024-02-23T04:45:00;92306.28;;;2.29;100.00
73600;BME280;61877;48.246;9.220;2024-02-23T04:47:27;92310.56;;;2.21;100.00
73600;BME280;61877;48.246;9.220;2024-02-23T04:49:54;92304.84;;;2.19;100.00
73600;BME280;61877;48.246;9.220;2024-02-23T04:52:20;92315.09;;;2.21;100.00
73600;BME280;61877;48.246;9.220;2024-02-23T04:54:48;92308.25;;;2.20;100.00
73600;BME280;61877;48.246;9.220;2024-02-23T04:57:15;92292.38;;;2.20;100.00
73600;BME280;61877;48.246;9.220;2024-02-23T04:59:41;92298.88;;;2.10;100.00
73600;BME280;61877;48.246;9.220;2024-02-23T05:02:08;92321.47;;;2.08;100.00
73600;BME280;61877;48.246;9.220;2024-02-23T05:04:34;92327.28;;;2.01;100.00
73600;BME280;61877;48.246;9.220;2024-02-23T05:07:01;92320.78;;;1.99;100.00
73600;BME280;61877;48.246;9.220;2024-02-23T05:09:28;92322.53;;;1.95;100.00
73600;BME280;61877;48.246;9.220;2024-02-23T05:11:56;92319.75;;;1.91;100.00
73600;BME280;61877;48.246;9.220;2024-02-23T05:14:23;92313.69;;;1.91;100.00
73600;BME280;61877;48.246;9.220;2024-02-23T05:16:50;92307.97;;;1.89;100.00
73600;BME280;61877;48.246;9.220;2024-02-23T05:19:16;92315.13;;;1.88;100.00
73600;BME280;61877;48.246;9.220;2024-02-23T05:21:43;92311.59;;;1.84;100.00
73600;BME280;61877;48.246;9.220;2024-02-23T05:24:11;92315.00;;;1.85;100.00
73600;BME280;61877;48.246;9.220;2024-02-23T05:26:37;92310.06;;;1.83;100.00
73600;BME280;61877;48.246;9.220;2024-02-23T05:29:05;92329.66;;;1.82;100.00
73600;BME280;61877;48.246;9.220;2024-02-23T05:31:46;92324.81;;;1.84;100.00
73600;BME280;61877;48.246;9.220;2024-02-23T05:34:12;92318.22;;;1.90;100.00
73600;BME280;61877;48.246;9.220;2024-02-23T05:36:39;92321.63;;;1.91;100.00
73600;BME280;61877;48.246;9.220;2024-02-23T05:39:06;92321.06;;;1.85;100.00
73600;BME280;61877;48.246;9.220;2024-02-23T05:41:33;92329.88;;;1.77;100.00
73600;BME280;61877;48.246;9.220;2024-02-23T05:43:59;92331.28;;;1.75;100.00
73600;BME280;61877;48.246;9.220;2024-02-23T05:46:27;92333.47;;;1.73;100.00
73600;BME280;61877;48.246;9.220;2024-02-23T05:48:54;92334.44;;;1.68;100.00
73600;BME280;61877;48.246;9.220;2024-02-23T05:51:21;92342.03;;;1.70;100.00
73600;BME280;61877;48.246;9.220;2024-02-23T05:53:48;92343.91;;;1.69;100.00
73600;BME280;61877;48.246;9.220;2024-02-23T05:56:14;92355.91;;;1.67;100.00
73600;BME280;61877;48.246;9.220;2024-02-23T05:58:41;92357.78;;;1.66;100.00
73600;BME280;61877;48.246;9.220;2024-02-23T06:01:09;92364.03;;;1.62;100.00
73600;BME280;61877;48.246;9.220;2024-02-23T06:03:37;92347.59;;;1.56;100.00
73600;BME280;61877;48.246;9.220;2024-02-23T06:06:06;92352.75;;;1.53;100.00
73600;BME280;61877;48.246;9.220;2024-02-23T06:08:33;92355.19;;;1.58;100.00
73600;BME280;61877;48.246;9.220;2024-02-23T06:11:00;92348.56;;;1.52;100.00
73600;BME280;61877;48.246;9.220;2024-02-23T06:13:26;92342.19;;;1.53;100.00
73600;BME280;61877;48.246;9.220;2024-02-23T06:15:53;92341.31;;;1.49;100.00
73600;BME280;61877;48.246;9.220;2024-02-23T06:18:20;92336.53;;;1.42;100.00
73600;BME280;61877;48.246;9.220;2024-02-23T06:20:49;92328.69;;;1.33;100.00
73600;BME280;61877;48.246;9.220;2024-02-23T06:23:16;92326.22;;;1.28;100.00
73600;BME280;61877;48.246;9.220;2024-02-23T06:25:43;92320.16;;;1.28;100.00
73600;BME280;61877;48.246;9.220;2024-02-23T06:28:13;92320.94;;;1.28;100.00
73600;BME280;61877;48.246;9.220;2024-02-23T06:30:39;92321.53;;;1.34;100.00
73600;BME280;61877;48.246;9.220;2024-02-23T06:33:06;92326.81;;;1.34;100.00
73600;BME280;61877;48.246;9.220;2024-02-23T06:35:32;92324.41;;;1.41;100.00
73600;BME280;61877;48.246;9.220;2024-02-23T06:38:00;92328.28;;;1.44;100.00
73600;BME280;61877;48.246;9.220;2024-02-23T06:40:27;92329.06;;;1.44;100.00
73600;BME280;61877;48.246;9.220;2024-02-23T06:43:10;92339.06;;;1.39;100.00
73600;BME280;61877;48.246;9.220;2024-02-23T06:45:40;92337.88;;;1.48;100.00
73600;BME280;61877;48.246;9.220;2024-02-23T06:48:08;92328.88;;;1.49;100.00
73600;BME280;61877;48.246;9.220;2024-02-23T06:50:35;92337.56;;;1.50;100.00
73600;BME280;61877;48.246;9.220;2024-02-23T06:53:03;92349.34;;;1.52;100.00
73600;BME280;61877;48.246;9.220;2024-02-23T06:55:30;92368.13;;;1.59;100.00
73600;BME280;61877;48.246;9.220;2024-02-23T06:57:56;92369.97;;;1.59;100.00
73600;BME280;61877;48.246;9.220;2024-02-23T07:00:23;92365.16;;;1.61;100.00
73600;BME280;61877;48.246;9.220;2024-02-23T07:02:50;92369.97;;;1.59;100.00
73600;BME280;61877;48.246;9.220;2024-02-23T07:05:16;92367.91;;;1.64;100.00
73600;BME280;61877;48.246;9.220;2024-02-23T07:07:43;92363.84;;;1.67;100.00
73600;BME280;61877;48.246;9.220;2024-02-23T07:10:11;92369.38;;;1.74;100.00
73600;BME280;61877;48.246;9.220;2024-02-23T07:12:37;92373.38;;;1.80;100.00
73600;BME280;61877;48.246;9.220;2024-02-23T07:15:05;92367.44;;;1.83;100.00
73600;BME280;61877;48.246;9.220;2024-02-23T07:17:31;92374.41;;;1.87;100.00
73600;BME280;61877;48.246;9.220;2024-02-23T07:19:58;92379.50;;;1.92;100.00
73600;BME280;61877;48.246;9.220;2024-02-23T07:22:25;92362.19;;;1.95;100.00
73600;BME280;61877;48.246;9.220;2024-02-23T07:24:51;92356.25;;;1.98;100.00
73600;BME280;61877;48.246;9.220;2024-02-23T07:27:19;92354.50;;;2.02;100.00
73600;BME280;61877;48.246;9.220;2024-02-23T07:29:46;92342.50;;;2.04;100.00
73600;BME280;61877;48.246;9.220;2024-02-23T07:32:12;92350.09;;;2.06;100.00
73600;BME280;61877;48.246;9.220;2024-02-23T07:34:39;92335.34;;;2.05;100.00
73600;BME280;61877;48.246;9.220;2024-02-23T07:37:06;92330.63;;;2.10;100.00
73600;BME280;61877;48.246;9.220;2024-02-23T07:39:32;92334.06;;;2.23;100.00
73600;BME280;61877;48.246;9.220;2024-02-23T07:41:59;92334.16;;;2.26;100.00
73600;BME280;61877;48.246;9.220;2024-02-23T07:44:27;92345.66;;;2.30;100.00
73600;BME280;61877;48.246;9.220;2024-02-23T07:46:54;92351.69;;;2.31;100.00
73600;BME280;61877;48.246;9.220;2024-02-23T07:49:21;92362.94;;;2.28;100.00
73600;BME280;61877;48.246;9.220;2024-02-23T07:51:48;92373.53;;;2.28;100.00
73600;BME280;61877;48.246;9.220;2024-02-23T07:54:14;92378.16;;;2.31;100.00
73600;BME280;61877;48.246;9.220;2024-02-23T07:56:41;92383.91;;;2.33;100.00
73600;BME280;61877;48.246;9.220;2024-02-23T07:59:07;92390.50;;;2.39;100.00
73600;BME280;61877;48.246;9.220;2024-02-23T08:01:35;92388.00;;;2.42;100.00
73600;BME280;61877;48.246;9.220;2024-02-23T08:04:02;92385.44;;;2.34;100.00
73600;BME280;61877;48.246;9.220;2024-02-23T08:06:29;92392.31;;;2.47;100.00
73600;BME280;61877;48.246;9.220;2024-02-23T08:08:56;92399.59;;;2.50;100.00
73600;BME280;61877;48.246;9.220;2024-02-23T08:11:22;92375.69;;;2.58;100.00
73600;BME280;61877;48.246;9.220;2024-02-23T08:13:50;92386.38;;;2.50;100.00
73600;BME280;61877;48.246;9.220;2024-02-23T08:16:16;92387.16;;;2.62;100.00
73600;BME280;61877;48.246;9.220;2024-02-23T08:18:44;92389.69;;;2.71;100.00
73600;BME280;61877;48.246;9.220;2024-02-23T08:21:13;92393.25;;;2.75;100.00
73600;BME280;61877;48.246;9.220;2024-02-23T08:23:39;92390.25;;;2.77;100.00
73600;BME280;61877;48.246;9.220;2024-02-23T08:26:06;92389.03;;;2.74;100.00
73600;BME280;61877;48.246;9.220;2024-02-23T08:28:33;92389.03;;;2.74;100.00
73600;BME280;61877;48.246;9.220;2024-02-23T08:30:59;92396.09;;;2.70;100.00
73600;BME280;61877;48.246;9.220;2024-02-23T08:33:26;92396.22;;;2.74;100.00
73600;BME280;61877;48.246;9.220;2024-02-23T08:35:55;92393.25;;;2.75;100.00
73600;BME280;61877;48.246;9.220;2024-02-23T08:38:21;92391.38;;;2.88;100.00
73600;BME280;61877;48.246;9.220;2024-02-23T08:40:48;92389.69;;;2.95;100.00
73600;BME280;61877;48.246;9.220;2024-02-23T08:43:14;92391.72;;;2.98;100.00
73600;BME280;61877;48.246;9.220;2024-02-23T08:45:41;92392.34;;;3.07;100.00
73600;BME280;61877;48.246;9.220;2024-02-23T08:48:10;92399.84;;;3.05;100.00
73600;BME280;61877;48.246;9.220;2024-02-23T08:50:39;92389.94;;;3.14;100.00
73600;BME280;61877;48.246;9.220;2024-02-23T08:53:08;92385.19;;;3.08;100.00
73600;BME280;61877;48.246;9.220;2024-02-23T08:55:34;92390.16;;;3.21;100.00
73600;BME280;61877;48.246;9.220;2024-02-23T08:58:01;92385.53;;;3.18;100.00
73600;BME280;61877;48.246;9.220;2024-02-23T09:00:30;92376.00;;;3.29;100.00
73600;BME280;61877;48.246;9.220;2024-02-23T09:02:59;92380.41;;;3.25;100.00
73600;BME280;61877;48.246;9.220;2024-02-23T09:05:26;92379.88;;;3.20;100.00
73600;BME280;61877;48.246;9.220;2024-02-23T09:07:53;92378.22;;;3.15;100.00
73600;BME280;61877;48.246;9.220;2024-02-23T09:10:21;92383.50;;;3.27;100.00
73600;BME280;61877;48.246;9.220;2024-02-23T09:12:48;92386.72;;;3.33;100.00
73600;BME280;61877;48.246;9.220;2024-02-23T09:15:16;92393.44;;;3.30;100.00
73600;BME280;61877;48.246;9.220;2024-02-23T09:17:44;92396.31;;;3.37;100.00
73600;BME280;61877;48.246;9.220;2024-02-23T09:20:11;92396.09;;;3.42;100.00
73600;BME280;61877;48.246;9.220;2024-02-23T09:22:38;92396.19;;;3.46;100.00
73600;BME280;61877;48.246;9.220;2024-02-23T09:25:06;92389.19;;;3.65;100.00
73600;BME280;61877;48.246;9.220;2024-02-23T09:27:34;92390.25;;;3.76;100.00
73600;BME280;61877;48.246;9.220;2024-02-23T09:30:00;92388.47;;;3.80;100.00
73600;BME280;61877;48.246;9.220;2024-02-23T09:32:27;92388.34;;;3.89;100.00
73600;BME280;61877;48.246;9.220;2024-02-23T09:34:54;92389.66;;;3.95;100.00
73600;BME280;61877;48.246;9.220;2024-02-23T09:37:20;92396.53;;;3.84;99.67
73600;BME280;61877;48.246;9.220;2024-02-23T09:39:47;92396.75;;;3.91;100.00
73600;BME280;61877;48.246;9.220;2024-02-23T09:42:14;92391.63;;;3.98;100.00
73600;BME280;61877;48.246;9.220;2024-02-23T09:44:44;92383.09;;;4.05;100.00
73600;BME280;61877;48.246;9.220;2024-02-23T09:47:11;92375.84;;;4.17;100.00
73600;BME280;61877;48.246;9.220;2024-02-23T09:49:39;92378.81;;;4.28;100.00
73600;BME280;61877;48.246;9.220;2024-02-23T09:52:07;92385.88;;;4.24;99.64
73600;BME280;61877;48.246;9.220;2024-02-23T09:54:34;92393.31;;;4.18;100.00
73600;BME280;61877;48.246;9.220;2024-02-23T09:57:04;92400.41;;;4.14;99.00
73600;BME280;61877;48.246;9.220;2024-02-23T09:59:33;92407.13;;;4.24;94.10
73600;BME280;61877;48.246;9.220;2024-02-23T10:02:03;92402.69;;;4.28;98.96
73600;BME280;61877;48.246;9.220;2024-02-23T10:04:33;92408.25;;;4.23;100.00
73600;BME280;61877;48.246;9.220;2024-02-23T10:07:00;92403.28;;;4.37;97.05
73600;BME280;61877;48.246;9.220;2024-02-23T10:09:26;92421.00;;;4.60;96.21
73600;BME280;61877;48.246;9.220;2024-02-23T10:11:53;92414.78;;;4.41;95.47
73600;BME280;61877;48.246;9.220;2024-02-23T10:14:20;92406.94;;;4.44;94.83
73600;BME280;61877;48.246;9.220;2024-02-23T10:16:47;92397.69;;;4.69;92.93
73600;BME280;61877;48.246;9.220;2024-02-23T10:19:16;92391.97;;;4.67;94.88
73600;BME280;61877;48.246;9.220;2024-02-23T10:21:42;92404.09;;;4.53;95.30
73600;BME280;61877;48.246;9.220;2024-02-23T10:24:09;92393.78;;;4.79;92.47
73600;BME280;61877;48.246;9.220;2024-02-23T10:26:36;92405.50;;;4.93;91.49
73600;BME280;61877;48.246;9.220;2024-02-23T10:29:03;92406.28;;;4.78;91.70
73600;BME280;61877;48.246;9.220;2024-02-23T10:31:33;92412.63;;;4.74;95.50
73600;BME280;61877;48.246;9.220;2024-02-23T10:34:04;92409.50;;;4.56;93.71
73600;BME280;61877;48.246;9.220;2024-02-23T10:36:36;92403.69;;;4.66;95.71
73600;BME280;61877;48.246;9.220;2024-02-23T10:39:03;92409.97;;;4.74;93.33
73600;BME280;61877;48.246;9.220;2024-02-23T10:41:34;92398.41;;;4.82;89.80
73600;BME280;61877;48.246;9.220;2024-02-23T10:44:02;92405.94;;;4.80;89.91
73600;BME280;61877;48.246;9.220;2024-02-23T10:46:30;92409.22;;;4.89;88.96
73600;BME280;61877;48.246;9.220;2024-02-23T10:48:58;92417.00;;;4.82;92.93
73600;BME280;61877;48.246;9.220;2024-02-23T10:51:25;92419.13;;;4.76;91.71
73600;BME280;61877;48.246;9.220;2024-02-23T10:53:53;92416.56;;;4.80;90.42
73600;BME280;61877;48.246;9.220;2024-02-23T10:56:20;92415.88;;;4.83;89.68
73600;BME280;61877;48.246;9.220;2024-02-23T10:58:46;92413.31;;;4.71;90.08
73600;BME280;61877;48.246;9.220;2024-02-23T11:01:14;92410.31;;;4.72;89.93
73600;BME280;61877;48.246;9.220;2024-02-23T11:03:42;92405.25;;;4.83;92.12
73600;BME280;61877;48.246;9.220;2024-02-23T11:06:10;92404.41;;;4.79;87.32
73600;BME280;61877;48.246;9.220;2024-02-23T11:08:38;92402.75;;;4.74;91.32
73600;BME280;61877;48.246;9.220;2024-02-23T11:11:10;92412.47;;;4.82;91.07
73600;BME280;61877;48.246;9.220;2024-02-23T11:13:37;92409.69;;;4.94;88.74
73600;BME280;61877;48.246;9.220;2024-02-23T11:16:08;92401.72;;;4.94;85.60
73600;BME280;61877;48.246;9.220;2024-02-23T11:18:35;92403.19;;;5.07;86.93
73600;BME280;61877;48.246;9.220;2024-02-23T11:21:08;92406.28;;;5.09;89.01
73600;BME280;61877;48.246;9.220;2024-02-23T11:23:40;92399.41;;;4.93;89.65
73600;BME280;61877;48.246;9.220;2024-02-23T11:26:09;92409.97;;;4.89;87.00
73600;BME280;61877;48.246;9.220;2024-02-23T11:28:43;92409.97;;;4.89;89.63
73600;BME280;61877;48.246;9.220;2024-02-23T11:31:19;92409.34;;;4.96;90.89
73600;BME280;61877;48.246;9.220;2024-02-23T11:33:50;92406.81;;;4.84;87.27
73600;BME280;61877;48.246;9.220;2024-02-23T11:36:23;92409.63;;;4.91;88.78
73600;BME280;61877;48.246;9.220;2024-02-23T11:38:54;92411.19;;;4.92;86.35
73600;BME280;61877;48.246;9.220;2024-02-23T11:41:24;92413.50;;;4.93;86.95
73600;BME280;61877;48.246;9.220;2024-02-23T11:43:51;92402.94;;;5.12;84.94
73600;BME280;61877;48.246;9.220;2024-02-23T11:46:19;92404.91;;;4.84;84.50
73600;BME280;61877;48.246;9.220;2024-02-23T11:48:46;92403.97;;;4.92;86.22
73600;BME280;61877;48.246;9.220;2024-02-23T11:51:15;92399.00;;;4.91;83.68
73600;BME280;61877;48.246;9.220;2024-02-23T11:53:42;92403.44;;;5.02;83.02
73600;BME280;61877;48.246;9.220;2024-02-23T11:56:10;92408.41;;;5.35;85.76
73600;BME280;61877;48.246;9.220;2024-02-23T11:58:39;92403.66;;;5.44;84.48
73600;BME280;61877;48.246;9.220;2024-02-23T12:01:06;92404.00;;;5.58;84.16
73600;BME280;61877;48.246;9.220;2024-02-23T12:03:33;92395.75;;;5.63;83.08
73600;BME280;61877;48.246;9.220;2024-02-23T12:06:00;92391.78;;;5.73;82.52
73600;BME280;61877;48.246;9.220;2024-02-23T12:08:27;92381.31;;;5.99;79.93
73600;BME280;61877;48.246;9.220;2024-02-23T12:10:56;92387.56;;;6.06;78.14
73600;BME280;61877;48.246;9.220;2024-02-23T12:13:23;92381.88;;;5.89;78.56
73600;BME280;61877;48.246;9.220;2024-02-23T12:15:53;92389.59;;;6.13;78.26
73600;BME280;61877;48.246;9.220;2024-02-23T12:18:24;92391.88;;;6.33;80.40
73600;BME280;61877;48.246;9.220;2024-02-23T12:20:51;92392.69;;;6.15;80.53
73600;BME280;61877;48.246;9.220;2024-02-23T12:23:17;92386.88;;;6.09;78.63
73600;BME280;61877;48.246;9.220;2024-02-23T12:25:52;92382.94;;;6.41;77.19
73600;BME280;61877;48.246;9.220;2024-02-23T12:28:19;92373.56;;;6.93;76.06
73600;BME280;61877;48.246;9.220;2024-02-23T12:30:45;92365.38;;;6.82;72.98
73600;BME280;61877;48.246;9.220;2024-02-23T12:33:15;92369.25;;;7.33;74.65
73600;BME280;61877;48.246;9.220;2024-02-23T12:35:42;92377.00;;;7.42;73.06
73600;BME280;61877;48.246;9.220;2024-02-23T12:38:09;92368.47;;;7.85;75.96
73600;BME280;61877;48.246;9.220;2024-02-23T12:40:36;92363.19;;;8.18;71.83
73600;BME280;61877;48.246;9.220;2024-02-23T12:43:02;92373.72;;;7.78;71.22
73600;BME280;61877;48.246;9.220;2024-02-23T12:45:29;92365.22;;;7.99;70.19
73600;BME280;61877;48.246;9.220;2024-02-23T12:47:56;92376.06;;;7.83;66.34
73600;BME280;61877;48.246;9.220;2024-02-23T12:50:24;92361.34;;;7.66;68.13
73600;BME280;61877;48.246;9.220;2024-02-23T12:52:53;92363.81;;;7.78;70.27
73600;BME280;61877;48.246;9.220;2024-02-23T12:55:21;92366.84;;;7.77;70.37
73600;BME280;61877;48.246;9.220;2024-02-23T12:57:48;92360.72;;;7.76;70.93
73600;BME280;61877;48.246;9.220;2024-02-23T13:00:15;92368.41;;;7.52;69.71
73600;BME280;61877;48.246;9.220;2024-02-23T13:02:42;92370.34;;;7.55;69.75